sensor_id;sensor_type;location;lat;lon;timestamp;temperature;humidity
6654;DHT22;3363;50.942;7.034;2023-09-30T00:02:15;18.40;81.90
6654;DHT22;3363;50.942;7.034;2023-09-30T00:04:42;18.40;81.60
6654;DHT22;3363;50.942;7.034;2023-09-30T00:07:08;18.40;81.40
6654;DHT22;3363;50.942;7.034;2023-09-30T00:09:35;18.40;81.30
6654;DHT22;3363;50.942;7.034;2023-09-30T00:12:04;18.30;80.90
6654;DHT22;3363;50.942;7.034;2023-09-30T00:14:31;18.30;80.90
6654;DHT22;3363;50.942;7.034;2023-09-30T00:16:57;18.30;80.50
6654;DHT22;3363;50.942;7.034;2023-09-30T00:19:25;18.30;80.20
6654;DHT22;3363;50.942;7.034;2023-09-30T00:21:52;18.30;79.60
6654;DHT22;3363;50.942;7.034;2023-09-30T00:24:18;18.20;79.60
6654;DHT22;3363;50.942;7.034;2023-09-30T00:26:45;18.20;79.10
6654;DHT22;3363;50.942;7.034;2023-09-30T00:29:14;18.20;79.00
6654;DHT22;3363;50.942;7.034;2023-09-30T00:31:40;18.20;78.90
6654;DHT22;3363;50.942;7.034;2023-09-30T00:34:07;18.20;78.40
6654;DHT22;3363;50.942;7.034;2023-09-30T00:36:34;18.20;78.20
6654;DHT22;3363;50.942;7.034;2023-09-30T00:39:00;18.10;78.30
6654;DHT22;3363;50.942;7.034;2023-09-30T00:41:27;18.10;78.00
6654;DHT22;3363;50.942;7.034;2023-09-30T00:43:54;18.10;78.20
6654;DHT22;3363;50.942;7.034;2023-09-30T00:46:25;18.10;78.20
6654;DHT22;3363;50.942;7.034;2023-09-30T00:48:52;18.10;78.10
6654;DHT22;3363;50.942;7.034;2023-09-30T00:51:19;18.10;78.60
6654;DHT22;3363;50.942;7.034;2023-09-30T00:53:46;18.10;78.00
6654;DHT22;3363;50.942;7.034;2023-09-30T00:56:13;18.10;77.90
6654;DHT22;3363;50.942;7.034;2023-09-30T00:58:39;18.10;78.10
6654;DHT22;3363;50.942;7.034;2023-09-30T01:01:06;18.00;78.10
6654;DHT22;3363;50.942;7.034;2023-09-30T01:03:34;18.00;78.00
6654;DHT22;3363;50.942;7.034;2023-09-30T01:06:01;18.00;77.90
6654;DHT22;3363;50.942;7.034;2023-09-30T01:08:28;18.00;77.90
6654;DHT22;3363;50.942;7.034;2023-09-30T01:10:54;18.00;78.00
6654;DHT22;3363;50.942;7.034;2023-09-30T01:13:21;18.00;78.00
6654;DHT22;3363;50.942;7.034;2023-09-30T01:15:48;18.00;77.90
6654;DHT22;3363;50.942;7.034;2023-09-30T01:18:15;17.90;77.90
6654;DHT22;3363;50.942;7.034;2023-09-30T01:20:43;17.90;78.00
6654;DHT22;3363;50.942;7.034;2023-09-30T01:23:11;17.90;78.00
6654;DHT22;3363;50.942;7.034;2023-09-30T01:25:38;17.90;78.00
6654;DHT22;3363;50.942;7.034;2023-09-30T01:28:07;17.90;77.90
6654;DHT22;3363;50.942;7.034;2023-09-30T01:30:34;17.90;78.00
6654;DHT22;3363;50.942;7.034;2023-09-30T01:33:00;17.80;78.00
6654;DHT22;3363;50.942;7.034;2023-09-30T01:35:27;17.80;78.00
6654;DHT22;3363;50.942;7.034;2023-09-30T01:37:54;17.80;77.90
6654;DHT22;3363;50.942;7.034;2023-09-30T01:40:22;17.80;78.00
6654;DHT22;3363;50.942;7.034;2023-09-30T01:42:48;17.80;77.80
6654;DHT22;3363;50.942;7.034;2023-09-30T01:45:15;17.80;77.80
6654;DHT22;3363;50.942;7.034;2023-09-30T01:47:41;17.80;77.80
6654;DHT22;3363;50.942;7.034;2023-09-30T01:50:08;17.70;77.70
6654;DHT22;3363;50.942;7.034;2023-09-30T01:52:35;17.70;77.70
6654;DHT22;3363;50.942;7.034;2023-09-30T01:55:02;17.70;77.80
6654;DHT22;3363;50.942;7.034;2023-09-30T01:57:30;17.70;77.70
6654;DHT22;3363;50.942;7.034;2023-09-30T01:59:57;17.70;77.80
6654;DHT22;3363;50.942;7.034;2023-09-30T02:02:23;17.70;77.90
6654;DHT22;3363;50.942;7.034;2023-09-30T02:04:51;17.70;77.90
6654;DHT22;3363;50.942;7.034;2023-09-30T02:07:18;17.70;77.80
6654;DHT22;3363;50.942;7.034;2023-09-30T02:09:45;17.60;77.90
6654;DHT22;3363;50.942;7.034;2023-09-30T02:12:12;17.60;77.90
6654;DHT22;3363;50.942;7.034;2023-09-30T02:14:40;17.60;77.70
6654;DHT22;3363;50.942;7.034;2023-09-30T02:17:06;17.60;77.70
6654;DHT22;3363;50.942;7.034;2023-09-30T02:19:34;17.60;77.70
6654;DHT22;3363;50.942;7.034;2023-09-30T02:22:01;17.60;77.60
6654;DHT22;3363;50.942;7.034;2023-09-30T02:24:28;17.50;77.60
6654;DHT22;3363;50.942;7.034;2023-09-30T02:26:55;17.50;77.70
6654;DHT22;3363;50.942;7.034;2023-09-30T02:29:21;17.50;77.60
6654;DHT22;3363;50.942;7.034;2023-09-30T02:31:49;17.50;77.60
6654;DHT22;3363;50.942;7.034;2023-09-30T02:34:16;17.50;77.60
6654;DHT22;3363;50.942;7.034;2023-09-30T02:36:43;17.50;77.90
6654;DHT22;3363;50.942;7.034;2023-09-30T02:39:10;17.50;77.60
6654;DHT22;3363;50.942;7.034;2023-09-30T02:41:36;17.40;77.70
6654;DHT22;3363;50.942;7.034;2023-09-30T02:44:03;17.40;77.60
6654;DHT22;3363;50.942;7.034;2023-09-30T02:46:30;17.40;77.60
6654;DHT22;3363;50.942;7.034;2023-09-30T02:49:00;17.40;77.50
6654;DHT22;3363;50.942;7.034;2023-09-30T02:51:27;17.40;77.30
6654;DHT22;3363;50.942;7.034;2023-09-30T02:53:54;17.40;77.20
6654;DHT22;3363;50.942;7.034;2023-09-30T02:56:20;17.30;77.20
6654;DHT22;3363;50.942;7.034;2023-09-30T02:58:50;17.30;77.10
6654;DHT22;3363;50.942;7.034;2023-09-30T03:01:17;17.30;77.10
6654;DHT22;3363;50.942;7.034;2023-09-30T03:03:44;17.30;77.10
6654;DHT22;3363;50.942;7.034;2023-09-30T03:06:12;17.30;77.00
6654;DHT22;3363;50.942;7.034;2023-09-30T03:08:39;17.30;77.10
6654;DHT22;3363;50.942;7.034;2023-09-30T03:11:06;17.30;77.00
6654;DHT22;3363;50.942;7.034;2023-09-30T03:13:33;17.20;76.80
6654;DHT22;3363;50.942;7.034;2023-09-30T03:16:00;17.20;76.80
6654;DHT22;3363;50.942;7.034;2023-09-30T03:18:27;17.20;76.70
6654;DHT22;3363;50.942;7.034;2023-09-30T03:20:58;17.20;76.50
6654;DHT22;3363;50.942;7.034;2023-09-30T03:23:27;17.20;76.50
6654;DHT22;3363;50.942;7.034;2023-09-30T03:25:56;17.20;76.30
6654;DHT22;3363;50.942;7.034;2023-09-30T03:28:23;17.10;76.20
6654;DHT22;3363;50.942;7.034;2023-09-30T03:30:49;17.20;76.40
6654;DHT22;3363;50.942;7.034;2023-09-30T03:33:16;17.10;76.20
6654;DHT22;3363;50.942;7.034;2023-09-30T03:35:43;17.10;76.10
6654;DHT22;3363;50.942;7.034;2023-09-30T03:38:10;17.10;76.20
6654;DHT22;3363;50.942;7.034;2023-09-30T03:40:39;17.10;76.10
6654;DHT22;3363;50.942;7.034;2023-09-30T03:43:12;17.10;76.20
6654;DHT22;3363;50.942;7.034;2023-09-30T03:45:39;17.00;76.00
6654;DHT22;3363;50.942;7.034;2023-09-30T03:48:06;17.00;76.10
6654;DHT22;3363;50.942;7.034;2023-09-30T03:50:34;17.00;76.10
6654;DHT22;3363;50.942;7.034;2023-09-30T03:53:01;17.00;76.00
6654;DHT22;3363;50.942;7.034;2023-09-30T03:55:28;17.00;76.10
6654;DHT22;3363;50.942;7.034;2023-09-30T03:57:57;17.00;76.00
6654;DHT22;3363;50.942;7.034;2023-09-30T04:00:23;16.90;75.90
6654;DHT22;3363;50.942;7.034;2023-09-30T04:02:50;16.90;75.70
6654;DHT22;3363;50.942;7.034;2023-09-30T04:05:20;16.90;75.60
6654;DHT22;3363;50.942;7.034;2023-09-30T04:07:51;16.90;75.60
6654;DHT22;3363;50.942;7.034;2023-09-30T04:10:18;16.90;75.60
6654;DHT22;3363;50.942;7.034;2023-09-30T04:12:44;16.90;75.50
6654;DHT22;3363;50.942;7.034;2023-09-30T04:15:12;16.80;75.40
6654;DHT22;3363;50.942;7.034;2023-09-30T04:17:39;16.80;75.40
6654;DHT22;3363;50.942;7.034;2023-09-30T04:20:06;16.80;75.30
6654;DHT22;3363;50.942;7.034;2023-09-30T04:22:37;16.80;75.20
6654;DHT22;3363;50.942;7.034;2023-09-30T04:25:05;16.80;75.10
6654;DHT22;3363;50.942;7.034;2023-09-30T04:27:34;16.80;75.10
6654;DHT22;3363;50.942;7.034;2023-09-30T04:30:02;16.80;75.10
6654;DHT22;3363;50.942;7.034;2023-09-30T04:32:35;16.70;75.00
6654;DHT22;3363;50.942;7.034;2023-09-30T04:35:02;16.70;74.90
6654;DHT22;3363;50.942;7.034;2023-09-30T04:37:29;16.80;74.90
6654;DHT22;3363;50.942;7.034;2023-09-30T04:39:55;16.70;74.80
6654;DHT22;3363;50.942;7.034;2023-09-30T04:42:23;16.70;74.90
6654;DHT22;3363;50.942;7.034;2023-09-30T04:44:50;16.60;74.80
6654;DHT22;3363;50.942;7.034;2023-09-30T04:47:17;16.60;74.70
6654;DHT22;3363;50.942;7.034;2023-09-30T04:49:45;16.60;74.70
6654;DHT22;3363;50.942;7.034;2023-09-30T04:52:12;16.60;74.50
6654;DHT22;3363;50.942;7.034;2023-09-30T04:54:39;16.60;74.50
6654;DHT22;3363;50.942;7.034;2023-09-30T04:57:05;16.60;74.50
6654;DHT22;3363;50.942;7.034;2023-09-30T04:59:32;16.60;74.30
6654;DHT22;3363;50.942;7.034;2023-09-30T05:01:59;16.60;74.30
6654;DHT22;3363;50.942;7.034;2023-09-30T05:04:26;16.60;74.20
6654;DHT22;3363;50.942;7.034;2023-09-30T05:06:54;16.50;74.20
6654;DHT22;3363;50.942;7.034;2023-09-30T05:09:20;16.50;74.00
6654;DHT22;3363;50.942;7.034;2023-09-30T05:11:47;16.50;74.00
6654;DHT22;3363;50.942;7.034;2023-09-30T05:14:15;16.50;73.80
6654;DHT22;3363;50.942;7.034;2023-09-30T05:16:42;16.50;73.80
6654;DHT22;3363;50.942;7.034;2023-09-30T05:19:09;16.50;73.80
6654;DHT22;3363;50.942;7.034;2023-09-30T05:21:35;16.50;73.80
6654;DHT22;3363;50.942;7.034;2023-09-30T05:24:04;16.50;73.70
6654;DHT22;3363;50.942;7.034;2023-09-30T05:26:31;16.40;73.70
6654;DHT22;3363;50.942;7.034;2023-09-30T05:28:58;16.40;73.50
6654;DHT22;3363;50.942;7.034;2023-09-30T05:31:25;16.40;73.60
6654;DHT22;3363;50.942;7.034;2023-09-30T05:33:52;16.40;73.50
6654;DHT22;3363;50.942;7.034;2023-09-30T05:36:19;16.40;73.40
6654;DHT22;3363;50.942;7.034;2023-09-30T05:38:46;16.40;73.40
6654;DHT22;3363;50.942;7.034;2023-09-30T05:41:15;16.40;73.10
6654;DHT22;3363;50.942;7.034;2023-09-30T05:43:41;16.30;73.20
6654;DHT22;3363;50.942;7.034;2023-09-30T05:46:09;16.30;73.20
6654;DHT22;3363;50.942;7.034;2023-09-30T05:48:36;16.30;73.20
6654;DHT22;3363;50.942;7.034;2023-09-30T05:51:04;16.30;73.40
6654;DHT22;3363;50.942;7.034;2023-09-30T05:53:31;16.30;73.40
6654;DHT22;3363;50.942;7.034;2023-09-30T05:55:58;16.30;73.50
6654;DHT22;3363;50.942;7.034;2023-09-30T05:58:26;16.30;73.50
6654;DHT22;3363;50.942;7.034;2023-09-30T06:00:53;16.30;73.40
6654;DHT22;3363;50.942;7.034;2023-09-30T06:03:20;16.30;73.50
6654;DHT22;3363;50.942;7.034;2023-09-30T06:05:47;16.30;73.50
6654;DHT22;3363;50.942;7.034;2023-09-30T06:08:14;16.30;73.50
6654;DHT22;3363;50.942;7.034;2023-09-30T06:10:40;16.30;73.40
6654;DHT22;3363;50.942;7.034;2023-09-30T06:13:09;16.30;73.60
6654;DHT22;3363;50.942;7.034;2023-09-30T06:15:38;16.30;73.40
6654;DHT22;3363;50.942;7.034;2023-09-30T06:18:05;16.30;73.60
6654;DHT22;3363;50.942;7.034;2023-09-30T06:20:32;16.30;73.50
6654;DHT22;3363;50.942;7.034;2023-09-30T06:22:58;16.30;73.70
6654;DHT22;3363;50.942;7.034;2023-09-30T06:25:26;16.30;74.40
6654;DHT22;3363;50.942;7.034;2023-09-30T06:27:53;16.30;73.90
6654;DHT22;3363;50.942;7.034;2023-09-30T06:30:20;16.30;74.20
6654;DHT22;3363;50.942;7.034;2023-09-30T06:32:48;16.30;74.30
6654;DHT22;3363;50.942;7.034;2023-09-30T06:35:15;16.30;74.40
6654;DHT22;3363;50.942;7.034;2023-09-30T06:37:42;16.30;74.50
6654;DHT22;3363;50.942;7.034;2023-09-30T06:40:11;16.30;74.70
6654;DHT22;3363;50.942;7.034;2023-09-30T06:42:38;16.30;74.80
6654;DHT22;3363;50.942;7.034;2023-09-30T06:45:06;16.30;75.00
6654;DHT22;3363;50.942;7.034;2023-09-30T06:47:33;16.30;75.10
6654;DHT22;3363;50.942;7.034;2023-09-30T06:50:01;16.30;75.90
6654;DHT22;3363;50.942;7.034;2023-09-30T06:52:33;16.20;76.40
6654;DHT22;3363;50.942;7.034;2023-09-30T06:55:00;16.30;76.30
6654;DHT22;3363;50.942;7.034;2023-09-30T06:57:27;16.30;76.20
6654;DHT22;3363;50.942;7.034;2023-09-30T06:59:54;16.30;76.80
6654;DHT22;3363;50.942;7.034;2023-09-30T07:02:21;16.30;76.70
6654;DHT22;3363;50.942;7.034;2023-09-30T07:04:49;16.30;76.70
6654;DHT22;3363;50.942;7.034;2023-09-30T07:07:17;16.30;77.10
6654;DHT22;3363;50.942;7.034;2023-09-30T07:09:44;16.30;77.00
6654;DHT22;3363;50.942;7.034;2023-09-30T07:12:10;16.30;77.20
6654;DHT22;3363;50.942;7.034;2023-09-30T07:14:37;16.30;77.10
6654;DHT22;3363;50.942;7.034;2023-09-30T07:17:04;16.30;77.30
6654;DHT22;3363;50.942;7.034;2023-09-30T07:19:31;16.30;77.50
6654;DHT22;3363;50.942;7.034;2023-09-30T07:21:57;16.20;77.80
6654;DHT22;3363;50.942;7.034;2023-09-30T07:24:25;16.30;78.20
6654;DHT22;3363;50.942;7.034;2023-09-30T07:26:52;16.30;78.10
6654;DHT22;3363;50.942;7.034;2023-09-30T07:29:19;16.30;78.20
6654;DHT22;3363;50.942;7.034;2023-09-30T07:31:45;16.20;78.60
6654;DHT22;3363;50.942;7.034;2023-09-30T07:34:12;16.20;79.30
6654;DHT22;3363;50.942;7.034;2023-09-30T07:36:39;16.20;79.70
6654;DHT22;3363;50.942;7.034;2023-09-30T07:39:05;16.20;80.70
6654;DHT22;3363;50.942;7.034;2023-09-30T07:41:35;16.20;79.80
6654;DHT22;3363;50.942;7.034;2023-09-30T07:44:03;16.30;80.30
6654;DHT22;3363;50.942;7.034;2023-09-30T07:46:30;16.30;79.50
6654;DHT22;3363;50.942;7.034;2023-09-30T07:48:57;16.30;79.60
6654;DHT22;3363;50.942;7.034;2023-09-30T07:51:24;16.30;79.80
6654;DHT22;3363;50.942;7.034;2023-09-30T07:53:51;16.30;80.00
6654;DHT22;3363;50.942;7.034;2023-09-30T07:56:18;16.20;80.10
6654;DHT22;3363;50.942;7.034;2023-09-30T07:58:46;16.20;81.00
6654;DHT22;3363;50.942;7.034;2023-09-30T08:01:12;16.20;80.90
6654;DHT22;3363;50.942;7.034;2023-09-30T08:03:39;16.10;82.00
6654;DHT22;3363;50.942;7.034;2023-09-30T08:06:07;16.20;81.80
6654;DHT22;3363;50.942;7.034;2023-09-30T08:08:34;16.20;81.70
6654;DHT22;3363;50.942;7.034;2023-09-30T08:11:00;16.30;81.70
6654;DHT22;3363;50.942;7.034;2023-09-30T08:13:27;16.30;81.50
6654;DHT22;3363;50.942;7.034;2023-09-30T08:15:55;16.20;83.20
6654;DHT22;3363;50.942;7.034;2023-09-30T08:18:22;16.40;82.10
6654;DHT22;3363;50.942;7.034;2023-09-30T08:20:49;16.40;81.80
6654;DHT22;3363;50.942;7.034;2023-09-30T08:23:15;16.40;82.20
6654;DHT22;3363;50.942;7.034;2023-09-30T08:25:42;16.40;82.00
6654;DHT22;3363;50.942;7.034;2023-09-30T08:28:09;16.40;82.30
6654;DHT22;3363;50.942;7.034;2023-09-30T08:30:36;16.30;82.80
6654;DHT22;3363;50.942;7.034;2023-09-30T08:33:04;16.10;85.40
6654;DHT22;3363;50.942;7.034;2023-09-30T08:35:35;16.10;87.30
6654;DHT22;3363;50.942;7.034;2023-09-30T08:38:01;16.20;85.80
6654;DHT22;3363;50.942;7.034;2023-09-30T08:40:28;16.30;85.10
6654;DHT22;3363;50.942;7.034;2023-09-30T08:42:55;16.30;86.40
6654;DHT22;3363;50.942;7.034;2023-09-30T08:45:21;16.30;85.30
6654;DHT22;3363;50.942;7.034;2023-09-30T08:47:48;16.30;86.00
6654;DHT22;3363;50.942;7.034;2023-09-30T08:50:17;16.20;87.30
6654;DHT22;3363;50.942;7.034;2023-09-30T08:52:44;16.20;87.10
6654;DHT22;3363;50.942;7.034;2023-09-30T08:55:11;16.40;87.00
6654;DHT22;3363;50.942;7.034;2023-09-30T08:57:38;16.50;86.20
6654;DHT22;3363;50.942;7.034;2023-09-30T09:00:06;16.30;89.20
6654;DHT22;3363;50.942;7.034;2023-09-30T09:02:36;16.20;89.30
6654;DHT22;3363;50.942;7.034;2023-09-30T09:05:03;16.10;90.00
6654;DHT22;3363;50.942;7.034;2023-09-30T09:07:32;16.20;89.90
6654;DHT22;3363;50.942;7.034;2023-09-30T09:10:03;16.20;90.30
6654;DHT22;3363;50.942;7.034;2023-09-30T09:12:30;16.30;89.50
6654;DHT22;3363;50.942;7.034;2023-09-30T09:14:57;16.40;89.60
6654;DHT22;3363;50.942;7.034;2023-09-30T09:17:23;16.50;90.10
6654;DHT22;3363;50.942;7.034;2023-09-30T09:19:58;16.30;90.20
6654;DHT22;3363;50.942;7.034;2023-09-30T09:22:36;16.40;90.30
6654;DHT22;3363;50.942;7.034;2023-09-30T09:25:03;16.70;88.40
6654;DHT22;3363;50.942;7.034;2023-09-30T09:27:30;16.60;91.80
6654;DHT22;3363;50.942;7.034;2023-09-30T09:30:07;16.50;90.40
6654;DHT22;3363;50.942;7.034;2023-09-30T09:32:51;16.80;89.30
6654;DHT22;3363;50.942;7.034;2023-09-30T09:35:19;17.10;86.70
6654;DHT22;3363;50.942;7.034;2023-09-30T09:37:52;17.30;85.50
6654;DHT22;3363;50.942;7.034;2023-09-30T09:40:22;17.50;82.40
6654;DHT22;3363;50.942;7.034;2023-09-30T09:42:49;17.80;80.30
6654;DHT22;3363;50.942;7.034;2023-09-30T09:45:19;17.60;80.20
6654;DHT22;3363;50.942;7.034;2023-09-30T09:47:47;17.90;79.40
6654;DHT22;3363;50.942;7.034;2023-09-30T09:50:13;17.80;80.00
6654;DHT22;3363;50.942;7.034;2023-09-30T09:52:40;17.80;79.70
6654;DHT22;3363;50.942;7.034;2023-09-30T09:55:11;17.90;79.30
6654;DHT22;3363;50.942;7.034;2023-09-30T09:57:37;18.30;76.60
6654;DHT22;3363;50.942;7.034;2023-09-30T10:00:05;18.40;75.40
6654;DHT22;3363;50.942;7.034;2023-09-30T10:02:38;18.10;76.30
6654;DHT22;3363;50.942;7.034;2023-09-30T10:05:05;18.30;75.70
6654;DHT22;3363;50.942;7.034;2023-09-30T10:07:33;18.50;74.30
6654;DHT22;3363;50.942;7.034;2023-09-30T10:10:02;18.20;76.30
6654;DHT22;3363;50.942;7.034;2023-09-30T10:12:36;18.00;77.60
6654;DHT22;3363;50.942;7.034;2023-09-30T10:17:56;18.50;75.60
6654;DHT22;3363;50.942;7.034;2023-09-30T10:20:26;18.70;74.50
6654;DHT22;3363;50.942;7.034;2023-09-30T10:25:35;18.50;74.90
6654;DHT22;3363;50.942;7.034;2023-09-30T10:33:26;18.30;74.80
6654;DHT22;3363;50.942;7.034;2023-09-30T10:35:53;18.10;76.80
6654;DHT22;3363;50.942;7.034;2023-09-30T10:38:39;18.30;77.30
6654;DHT22;3363;50.942;7.034;2023-09-30T10:41:06;18.50;75.80
6654;DHT22;3363;50.942;7.034;2023-09-30T10:43:33;18.80;73.60
6654;DHT22;3363;50.942;7.034;2023-09-30T10:46:01;18.80;72.50
6654;DHT22;3363;50.942;7.034;2023-09-30T10:48:38;18.50;73.20
6654;DHT22;3363;50.942;7.034;2023-09-30T10:51:13;18.20;74.50
6654;DHT22;3363;50.942;7.034;2023-09-30T10:53:43;18.00;76.00
6654;DHT22;3363;50.942;7.034;2023-09-30T10:56:10;17.90;77.30
6654;DHT22;3363;50.942;7.034;2023-09-30T10:58:46;17.90;77.60
6654;DHT22;3363;50.942;7.034;2023-09-30T11:01:14;18.30;76.30
6654;DHT22;3363;50.942;7.034;2023-09-30T11:03:43;18.60;73.70
6654;DHT22;3363;50.942;7.034;2023-09-30T11:06:13;18.70;71.70
6654;DHT22;3363;50.942;7.034;2023-09-30T11:08:46;18.70;70.70
6654;DHT22;3363;50.942;7.034;2023-09-30T11:11:12;18.70;70.80
6654;DHT22;3363;50.942;7.034;2023-09-30T11:13:39;18.40;68.40
6654;DHT22;3363;50.942;7.034;2023-09-30T11:16:06;18.10;69.50
6654;DHT22;3363;50.942;7.034;2023-09-30T11:18:33;17.90;70.60
6654;DHT22;3363;50.942;7.034;2023-09-30T11:21:05;17.90;72.20
6654;DHT22;3363;50.942;7.034;2023-09-30T11:23:31;17.80;72.30
6654;DHT22;3363;50.942;7.034;2023-09-30T11:25:59;17.70;71.10
6654;DHT22;3363;50.942;7.034;2023-09-30T11:28:34;17.60;72.80
6654;DHT22;3363;50.942;7.034;2023-09-30T11:31:03;17.80;73.80
6654;DHT22;3363;50.942;7.034;2023-09-30T11:33:31;17.90;71.30
6654;DHT22;3363;50.942;7.034;2023-09-30T11:36:01;18.10;68.20
6654;DHT22;3363;50.942;7.034;2023-09-30T11:38:30;18.10;71.60
6654;DHT22;3363;50.942;7.034;2023-09-30T11:40:58;18.40;70.70
6654;DHT22;3363;50.942;7.034;2023-09-30T11:43:24;18.50;69.80
6654;DHT22;3363;50.942;7.034;2023-09-30T11:45:51;18.70;68.00
6654;DHT22;3363;50.942;7.034;2023-09-30T11:48:18;18.70;67.00
6654;DHT22;3363;50.942;7.034;2023-09-30T11:50:46;18.80;67.90
6654;DHT22;3363;50.942;7.034;2023-09-30T11:53:15;18.90;66.70
6654;DHT22;3363;50.942;7.034;2023-09-30T11:55:43;18.90;66.80
6654;DHT22;3363;50.942;7.034;2023-09-30T11:58:11;19.00;66.60
6654;DHT22;3363;50.942;7.034;2023-09-30T12:00:43;18.90;65.30
6654;DHT22;3363;50.942;7.034;2023-09-30T12:03:11;18.80;66.40
6654;DHT22;3363;50.942;7.034;2023-09-30T12:05:37;19.00;66.20
6654;DHT22;3363;50.942;7.034;2023-09-30T12:08:04;19.10;65.20
6654;DHT22;3363;50.942;7.034;2023-09-30T12:10:32;19.00;66.80
6654;DHT22;3363;50.942;7.034;2023-09-30T12:13:00;19.00;66.00
6654;DHT22;3363;50.942;7.034;2023-09-30T12:15:26;19.00;66.00
6654;DHT22;3363;50.942;7.034;2023-09-30T12:17:53;19.10;64.80
6654;DHT22;3363;50.942;7.034;2023-09-30T12:20:20;19.10;65.70
6654;DHT22;3363;50.942;7.034;2023-09-30T12:22:46;19.10;64.80
6654;DHT22;3363;50.942;7.034;2023-09-30T12:25:14;19.20;65.10
6654;DHT22;3363;50.942;7.034;2023-09-30T12:27:42;19.20;65.20
6654;DHT22;3363;50.942;7.034;2023-09-30T12:30:10;19.20;66.20
6654;DHT22;3363;50.942;7.034;2023-09-30T12:32:39;19.10;66.10
6654;DHT22;3363;50.942;7.034;2023-09-30T12:35:06;19.00;65.60
6654;DHT22;3363;50.942;7.034;2023-09-30T12:37:33;18.90;65.70
6654;DHT22;3363;50.942;7.034;2023-09-30T12:39:59;18.80;65.00
6654;DHT22;3363;50.942;7.034;2023-09-30T12:42:26;18.70;63.70
6654;DHT22;3363;50.942;7.034;2023-09-30T12:44:54;18.70;66.40
6654;DHT22;3363;50.942;7.034;2023-09-30T12:47:22;18.80;66.20
6654;DHT22;3363;50.942;7.034;2023-09-30T12:49:49;18.80;66.30
6654;DHT22;3363;50.942;7.034;2023-09-30T12:52:15;19.00;64.60
6654;DHT22;3363;50.942;7.034;2023-09-30T12:54:42;19.00;63.40
6654;DHT22;3363;50.942;7.034;2023-09-30T12:57:08;19.00;65.40
6654;DHT22;3363;50.942;7.034;2023-09-30T12:59:38;19.20;64.70
6654;DHT22;3363;50.942;7.034;2023-09-30T13:02:04;19.10;64.50
6654;DHT22;3363;50.942;7.034;2023-09-30T13:04:32;19.20;64.60
6654;DHT22;3363;50.942;7.034;2023-09-30T13:06:59;19.10;64.20
6654;DHT22;3363;50.942;7.034;2023-09-30T13:09:26;19.10;63.90
6654;DHT22;3363;50.942;7.034;2023-09-30T13:11:52;19.10;65.10
6654;DHT22;3363;50.942;7.034;2023-09-30T13:14:19;19.10;64.30
6654;DHT22;3363;50.942;7.034;2023-09-30T13:16:45;18.90;65.00
6654;DHT22;3363;50.942;7.034;2023-09-30T13:19:12;18.90;66.10
6654;DHT22;3363;50.942;7.034;2023-09-30T13:21:42;19.00;65.50
6654;DHT22;3363;50.942;7.034;2023-09-30T13:24:09;18.80;65.10
6654;DHT22;3363;50.942;7.034;2023-09-30T13:26:36;18.80;62.50
6654;DHT22;3363;50.942;7.034;2023-09-30T13:29:03;18.70;64.80
6654;DHT22;3363;50.942;7.034;2023-09-30T13:31:30;18.80;65.90
6654;DHT22;3363;50.942;7.034;2023-09-30T13:33:57;18.80;65.30
6654;DHT22;3363;50.942;7.034;2023-09-30T13:36:23;18.70;63.50
6654;DHT22;3363;50.942;7.034;2023-09-30T13:38:51;18.60;65.70
6654;DHT22;3363;50.942;7.034;2023-09-30T13:41:18;18.40;65.50
6654;DHT22;3363;50.942;7.034;2023-09-30T13:43:45;18.50;65.60
6654;DHT22;3363;50.942;7.034;2023-09-30T13:46:11;18.50;62.70
6654;DHT22;3363;50.942;7.034;2023-09-30T13:48:38;18.60;63.30
6654;DHT22;3363;50.942;7.034;2023-09-30T13:51:05;18.60;65.80
6654;DHT22;3363;50.942;7.034;2023-09-30T13:53:32;18.60;62.50
6654;DHT22;3363;50.942;7.034;2023-09-30T13:56:00;18.70;58.90
6654;DHT22;3363;50.942;7.034;2023-09-30T13:58:28;18.90;65.30
6654;DHT22;3363;50.942;7.034;2023-09-30T14:00:56;18.90;63.50
6654;DHT22;3363;50.942;7.034;2023-09-30T14:03:23;18.80;62.70
6654;DHT22;3363;50.942;7.034;2023-09-30T14:05:50;18.80;64.50
6654;DHT22;3363;50.942;7.034;2023-09-30T14:08:18;18.70;60.50
6654;DHT22;3363;50.942;7.034;2023-09-30T14:10:45;18.70;62.90
6654;DHT22;3363;50.942;7.034;2023-09-30T14:13:13;18.70;65.60
6654;DHT22;3363;50.942;7.034;2023-09-30T14:15:40;18.90;63.70
6654;DHT22;3363;50.942;7.034;2023-09-30T14:18:07;18.80;63.80
6654;DHT22;3363;50.942;7.034;2023-09-30T14:20:33;18.80;64.50
6654;DHT22;3363;50.942;7.034;2023-09-30T14:23:01;18.70;65.90
6654;DHT22;3363;50.942;7.034;2023-09-30T14:25:28;18.60;64.60
6654;DHT22;3363;50.942;7.034;2023-09-30T14:27:55;18.60;66.00
6654;DHT22;3363;50.942;7.034;2023-09-30T14:30:23;18.80;65.90
6654;DHT22;3363;50.942;7.034;2023-09-30T14:32:50;18.90;62.00
6654;DHT22;3363;50.942;7.034;2023-09-30T14:35:17;18.80;64.30
6654;DHT22;3363;50.942;7.034;2023-09-30T14:37:44;18.80;65.40
6654;DHT22;3363;50.942;7.034;2023-09-30T14:40:11;18.80;64.90
6654;DHT22;3363;50.942;7.034;2023-09-30T14:42:38;18.70;66.00
6654;DHT22;3363;50.942;7.034;2023-09-30T14:45:07;18.70;64.50
6654;DHT22;3363;50.942;7.034;2023-09-30T14:47:36;18.70;65.80
6654;DHT22;3363;50.942;7.034;2023-09-30T14:50:02;18.80;65.20
6654;DHT22;3363;50.942;7.034;2023-09-30T14:52:29;18.80;65.10
6654;DHT22;3363;50.942;7.034;2023-09-30T14:54:56;18.90;65.30
6654;DHT22;3363;50.942;7.034;2023-09-30T14:57:23;19.00;64.70
6654;DHT22;3363;50.942;7.034;2023-09-30T14:59:50;19.00;64.70
6654;DHT22;3363;50.942;7.034;2023-09-30T15:02:17;19.10;64.50
6654;DHT22;3363;50.942;7.034;2023-09-30T15:04:45;19.20;64.60
6654;DHT22;3363;50.942;7.034;2023-09-30T15:07:12;19.00;64.30
6654;DHT22;3363;50.942;7.034;2023-09-30T15:09:38;18.90;64.30
6654;DHT22;3363;50.942;7.034;2023-09-30T15:12:05;18.80;62.60
6654;DHT22;3363;50.942;7.034;2023-09-30T15:14:32;18.70;63.50
6654;DHT22;3363;50.942;7.034;2023-09-30T15:16:58;18.60;63.80
6654;DHT22;3363;50.942;7.034;2023-09-30T15:19:25;18.70;66.00
6654;DHT22;3363;50.942;7.034;2023-09-30T15:21:53;18.70;65.80
6654;DHT22;3363;50.942;7.034;2023-09-30T15:24:19;18.80;65.20
6654;DHT22;3363;50.942;7.034;2023-09-30T15:26:46;18.60;65.70
6654;DHT22;3363;50.942;7.034;2023-09-30T15:29:13;18.60;66.20
6654;DHT22;3363;50.942;7.034;2023-09-30T15:31:41;18.60;66.40
6654;DHT22;3363;50.942;7.034;2023-09-30T15:34:07;18.60;66.40
6654;DHT22;3363;50.942;7.034;2023-09-30T15:36:35;18.70;66.00
6654;DHT22;3363;50.942;7.034;2023-09-30T15:39:04;18.70;65.20
6654;DHT22;3363;50.942;7.034;2023-09-30T15:41:31;18.60;65.80
6654;DHT22;3363;50.942;7.034;2023-09-30T15:43:59;18.70;66.70
6654;DHT22;3363;50.942;7.034;2023-09-30T15:46:26;18.70;66.60
6654;DHT22;3363;50.942;7.034;2023-09-30T15:48:53;18.70;67.10
6654;DHT22;3363;50.942;7.034;2023-09-30T15:51:19;18.70;67.50
6654;DHT22;3363;50.942;7.034;2023-09-30T15:53:46;18.70;67.30
6654;DHT22;3363;50.942;7.034;2023-09-30T15:56:14;18.70;67.70
6654;DHT22;3363;50.942;7.034;2023-09-30T15:58:41;18.60;67.00
6654;DHT22;3363;50.942;7.034;2023-09-30T16:01:10;18.60;68.20
6654;DHT22;3363;50.942;7.034;2023-09-30T16:03:37;18.70;68.20
6654;DHT22;3363;50.942;7.034;2023-09-30T16:06:04;18.80;68.30
6654;DHT22;3363;50.942;7.034;2023-09-30T16:08:31;18.70;68.70
6654;DHT22;3363;50.942;7.034;2023-09-30T16:10:57;18.70;69.00
6654;DHT22;3363;50.942;7.034;2023-09-30T16:13:25;18.60;68.80
6654;DHT22;3363;50.942;7.034;2023-09-30T16:15:53;18.70;69.50